sensor_id;sensor_type;location;lat;lon;timestamp;P1;durP1;ratioP1;P2;durP2;ratioP2
19251;SDS011;9760;50.944;5.304;2022-07-24T00:00:52;6.73;;;4.07;;
19251;SDS011;9760;50.944;5.304;2022-07-24T00:03:19;9.40;;;4.10;;
19251;SDS011;9760;50.944;5.304;2022-07-24T00:05:44;5.20;;;4.17;;
19251;SDS011;9760;50.944;5.304;2022-07-24T00:08:10;7.93;;;4.83;;
19251;SDS011;9760;50.944;5.304;2022-07-24T00:10:36;10.10;;;4.93;;
19251;SDS011;9760;50.944;5.304;2022-07-24T00:13:01;9.57;;;4.97;;
19251;SDS011;9760;50.944;5.304;2022-07-24T00:15:27;7.60;;;5.00;;
19251;SDS011;9760;50.944;5.304;2022-07-24T00:17:55;10.33;;;4.53;;
19251;SDS011;9760;50.944;5.304;2022-07-24T00:20:21;9.43;;;4.00;;
19251;SDS011;9760;50.944;5.304;2022-07-24T00:22:47;8.20;;;4.60;;
19251;SDS011;9760;50.944;5.304;2022-07-24T00:25:13;8.27;;;4.57;;
19251;SDS011;9760;50.944;5.304;2022-07-24T00:27:38;8.23;;;4.93;;
19251;SDS011;9760;50.944;5.304;2022-07-24T00:30:04;6.63;;;4.03;;
19251;SDS011;9760;50.944;5.304;2022-07-24T00:32:30;7.20;;;4.30;;
19251;SDS011;9760;50.944;5.304;2022-07-24T00:34:56;7.17;;;3.90;;
19251;SDS011;9760;50.944;5.304;2022-07-24T00:37:21;12.00;;;4.90;;
19251;SDS011;9760;50.944;5.304;2022-07-24T00:39:47;6.00;;;4.30;;
19251;SDS011;9760;50.944;5.304;2022-07-24T00:42:13;7.73;;;5.00;;
19251;SDS011;9760;50.944;5.304;2022-07-24T00:44:39;14.37;;;6.43;;
19251;SDS011;9760;50.944;5.304;2022-07-24T00:47:05;11.03;;;5.80;;
19251;SDS011;9760;50.944;5.304;2022-07-24T00:49:30;9.77;;;6.30;;
19251;SDS011;9760;50.944;5.304;2022-07-24T00:51:56;8.50;;;5.97;;
19251;SDS011;9760;50.944;5.304;2022-07-24T00:54:22;9.83;;;6.43;;
19251;SDS011;9760;50.944;5.304;2022-07-24T00:56:49;11.67;;;6.03;;
19251;SDS011;9760;50.944;5.304;2022-07-24T00:59:17;10.80;;;6.33;;
19251;SDS011;9760;50.944;5.304;2022-07-24T01:01:44;9.20;;;6.47;;
19251;SDS011;9760;50.944;5.304;2022-07-24T01:04:10;13.70;;;8.70;;
19251;SDS011;9760;50.944;5.304;2022-07-24T01:06:39;14.67;;;7.80;;
19251;SDS011;9760;50.944;5.304;2022-07-24T01:09:06;11.67;;;7.27;;
19251;SDS011;9760;50.944;5.304;2022-07-24T01:11:32;13.77;;;7.07;;
19251;SDS011;9760;50.944;5.304;2022-07-24T01:13:58;13.60;;;6.30;;
19251;SDS011;9760;50.944;5.304;2022-07-24T01:16:25;12.33;;;7.03;;
19251;SDS011;9760;50.944;5.304;2022-07-24T01:18:50;13.93;;;6.93;;
19251;SDS011;9760;50.944;5.304;2022-07-24T01:21:16;14.17;;;6.93;;
19251;SDS011;9760;50.944;5.304;2022-07-24T01:23:42;14.97;;;6.97;;
19251;SDS011;9760;50.944;5.304;2022-07-24T01:26:08;10.83;;;6.90;;
19251;SDS011;9760;50.944;5.304;2022-07-24T01:28:34;10.73;;;6.53;;
19251;SDS011;9760;50.944;5.304;2022-07-24T01:31:00;9.90;;;6.60;;
19251;SDS011;9760;50.944;5.304;2022-07-24T01:33:26;10.33;;;6.63;;
19251;SDS011;9760;50.944;5.304;2022-07-24T01:35:51;11.53;;;7.07;;
19251;SDS011;9760;50.944;5.304;2022-07-24T01:38:17;9.67;;;6.50;;
19251;SDS011;9760;50.944;5.304;2022-07-24T01:40:43;12.87;;;6.50;;
19251;SDS011;9760;50.944;5.304;2022-07-24T01:43:09;12.93;;;6.30;;
19251;SDS011;9760;50.944;5.304;2022-07-24T01:45:35;11.23;;;7.20;;
19251;SDS011;9760;50.944;5.304;2022-07-24T01:48:01;11.27;;;6.80;;
19251;SDS011;9760;50.944;5.304;2022-07-24T01:50:27;11.77;;;6.70;;
19251;SDS011;9760;50.944;5.304;2022-07-24T01:52:53;13.07;;;7.87;;
19251;SDS011;9760;50.944;5.304;2022-07-24T01:55:20;13.87;;;7.23;;
19251;SDS011;9760;50.944;5.304;2022-07-24T01:57:46;16.90;;;7.40;;
19251;SDS011;9760;50.944;5.304;2022-07-24T02:00:12;12.10;;;7.60;;
19251;SDS011;9760;50.944;5.304;2022-07-24T02:02:39;13.53;;;7.63;;
19251;SDS011;9760;50.944;5.304;2022-07-24T02:05:07;17.87;;;8.47;;
19251;SDS011;9760;50.944;5.304;2022-07-24T02:07:33;12.70;;;7.63;;
19251;SDS011;9760;50.944;5.304;2022-07-24T02:09:58;13.10;;;8.00;;
19251;SDS011;9760;50.944;5.304;2022-07-24T02:12:24;15.03;;;8.83;;
19251;SDS011;9760;50.944;5.304;2022-07-24T02:14:50;12.33;;;7.87;;
19251;SDS011;9760;50.944;5.304;2022-07-24T02:17:16;16.43;;;8.47;;
19251;SDS011;9760;50.944;5.304;2022-07-24T02:19:41;18.13;;;8.93;;
19251;SDS011;9760;50.944;5.304;2022-07-24T02:22:07;15.57;;;8.93;;
19251;SDS011;9760;50.944;5.304;2022-07-24T02:24:32;14.87;;;9.17;;
19251;SDS011;9760;50.944;5.304;2022-07-24T02:26:58;14.17;;;9.53;;
19251;SDS011;9760;50.944;5.304;2022-07-24T02:29:24;14.57;;;9.07;;
19251;SDS011;9760;50.944;5.304;2022-07-24T02:31:49;19.07;;;10.47;;
19251;SDS011;9760;50.944;5.304;2022-07-24T02:34:15;15.63;;;9.87;;
19251;SDS011;9760;50.944;5.304;2022-07-24T02:36:40;15.60;;;9.70;;
19251;SDS011;9760;50.944;5.304;2022-07-24T02:39:06;19.77;;;10.13;;
19251;SDS011;9760;50.944;5.304;2022-07-24T02:41:32;16.40;;;9.80;;
19251;SDS011;9760;50.944;5.304;2022-07-24T02:43:57;17.73;;;9.77;;
19251;SDS011;9760;50.944;5.304;2022-07-24T02:46:23;16.63;;;10.10;;
19251;SDS011;9760;50.944;5.304;2022-07-24T02:48:48;17.13;;;10.50;;
19251;SDS011;9760;50.944;5.304;2022-07-24T02:51:14;20.83;;;11.90;;
19251;SDS011;9760;50.944;5.304;2022-07-24T02:53:40;21.50;;;13.23;;
19251;SDS011;9760;50.944;5.304;2022-07-24T02:56:05;24.93;;;12.70;;
19251;SDS011;9760;50.944;5.304;2022-07-24T02:58:31;26.07;;;14.33;;
19251;SDS011;9760;50.944;5.304;2022-07-24T03:00:57;23.87;;;13.57;;
19251;SDS011;9760;50.944;5.304;2022-07-24T03:03:23;25.70;;;14.30;;
19251;SDS011;9760;50.944;5.304;2022-07-24T03:05:49;33.40;;;14.73;;
19251;SDS011;9760;50.944;5.304;2022-07-24T03:08:15;26.53;;;13.83;;
19251;SDS011;9760;50.944;5.304;2022-07-24T03:10:40;27.13;;;14.67;;
19251;SDS011;9760;50.944;5.304;2022-07-24T03:13:06;28.73;;;15.43;;
19251;SDS011;9760;50.944;5.304;2022-07-24T03:15:32;25.37;;;14.67;;
19251;SDS011;9760;50.944;5.304;2022-07-24T03:17:57;27.33;;;14.53;;
19251;SDS011;9760;50.944;5.304;2022-07-24T03:20:24;24.20;;;13.97;;
19251;SDS011;9760;50.944;5.304;2022-07-24T03:22:52;23.50;;;14.20;;
19251;SDS011;9760;50.944;5.304;2022-07-24T03:25:18;24.37;;;14.33;;
19251;SDS011;9760;50.944;5.304;2022-07-24T03:27:44;31.07;;;15.27;;
19251;SDS011;9760;50.944;5.304;2022-07-24T03:30:11;25.83;;;14.53;;
19251;SDS011;9760;50.944;5.304;2022-07-24T03:32:37;31.70;;;16.50;;
19251;SDS011;9760;50.944;5.304;2022-07-24T03:35:03;28.03;;;16.17;;
19251;SDS011;9760;50.944;5.304;2022-07-24T03:37:29;30.83;;;16.30;;
19251;SDS011;9760;50.944;5.304;2022-07-24T03:39:55;35.77;;;17.97;;
19251;SDS011;9760;50.944;5.304;2022-07-24T03:42:21;28.90;;;16.33;;
19251;SDS011;9760;50.944;5.304;2022-07-24T03:44:47;27.83;;;16.83;;
19251;SDS011;9760;50.944;5.304;2022-07-24T03:47:12;29.97;;;18.27;;
19251;SDS011;9760;50.944;5.304;2022-07-24T03:49:38;32.63;;;17.97;;
19251;SDS011;9760;50.944;5.304;2022-07-24T03:52:04;33.87;;;18.17;;
19251;SDS011;9760;50.944;5.304;2022-07-24T03:54:30;33.30;;;19.80;;
19251;SDS011;9760;50.944;5.304;2022-07-24T03:56:55;35.00;;;19.13;;
19251;SDS011;9760;50.944;5.304;2022-07-24T03:59:21;38.57;;;20.07;;
19251;SDS011;9760;50.944;5.304;2022-07-24T04:01:47;38.43;;;20.37;;
19251;SDS011;9760;50.944;5.304;2022-07-24T04:04:12;35.00;;;19.87;;
19251;SDS011;9760;50.944;5.304;2022-07-24T04:06:38;34.67;;;19.43;;
19251;SDS011;9760;50.944;5.304;2022-07-24T04:09:05;35.57;;;18.97;;
19251;SDS011;9760;50.944;5.304;2022-07-24T04:11:31;39.13;;;19.63;;
19251;SDS011;9760;50.944;5.304;2022-07-24T04:13:57;36.17;;;20.03;;
19251;SDS011;9760;50.944;5.304;2022-07-24T04:16:23;37.87;;;19.10;;
19251;SDS011;9760;50.944;5.304;2022-07-24T04:18:49;40.67;;;20.90;;
19251;SDS011;9760;50.944;5.304;2022-07-24T04:21:15;40.70;;;21.07;;
19251;SDS011;9760;50.944;5.304;2022-07-24T04:23:41;43.07;;;22.00;;
19251;SDS011;9760;50.944;5.304;2022-07-24T04:26:07;37.53;;;20.13;;
19251;SDS011;9760;50.944;5.304;2022-07-24T04:28:33;34.67;;;21.40;;
19251;SDS011;9760;50.944;5.304;2022-07-24T04:30:58;40.23;;;22.07;;
19251;SDS011;9760;50.944;5.304;2022-07-24T04:33:24;40.40;;;22.20;;
19251;SDS011;9760;50.944;5.304;2022-07-24T04:35:50;37.03;;;21.17;;
19251;SDS011;9760;50.944;5.304;2022-07-24T04:38:15;35.50;;;23.13;;
19251;SDS011;9760;50.944;5.304;2022-07-24T04:40:42;38.47;;;23.27;;
19251;SDS011;9760;50.944;5.304;2022-07-24T04:43:08;40.73;;;23.80;;
19251;SDS011;9760;50.944;5.304;2022-07-24T04:45:34;39.53;;;23.70;;
19251;SDS011;9760;50.944;5.304;2022-07-24T04:47:59;39.57;;;23.37;;
19251;SDS011;9760;50.944;5.304;2022-07-24T04:50:25;38.40;;;23.60;;
19251;SDS011;9760;50.944;5.304;2022-07-24T04:52:51;39.20;;;24.50;;
19251;SDS011;9760;50.944;5.304;2022-07-24T04:55:16;42.97;;;24.57;;
19251;SDS011;9760;50.944;5.304;2022-07-24T04:57:42;47.47;;;26.17;;
19251;SDS011;9760;50.944;5.304;2022-07-24T05:00:09;43.10;;;26.80;;
19251;SDS011;9760;50.944;5.304;2022-07-24T05:02:36;45.77;;;25.63;;
19251;SDS011;9760;50.944;5.304;2022-07-24T05:05:01;50.97;;;27.90;;
19251;SDS011;9760;50.944;5.304;2022-07-24T05:07:28;53.17;;;28.10;;
19251;SDS011;9760;50.944;5.304;2022-07-24T05:09:54;50.10;;;28.57;;
19251;SDS011;9760;50.944;5.304;2022-07-24T05:12:19;51.27;;;28.73;;
19251;SDS011;9760;50.944;5.304;2022-07-24T05:14:45;53.83;;;28.60;;
19251;SDS011;9760;50.944;5.304;2022-07-24T05:17:11;52.30;;;28.40;;
19251;SDS011;9760;50.944;5.304;2022-07-24T05:19:36;59.23;;;31.20;;
19251;SDS011;9760;50.944;5.304;2022-07-24T05:22:02;59.10;;;29.23;;
19251;SDS011;9760;50.944;5.304;2022-07-24T05:24:27;53.53;;;28.90;;
19251;SDS011;9760;50.944;5.304;2022-07-24T05:26:54;50.10;;;29.77;;
19251;SDS011;9760;50.944;5.304;2022-07-24T05:29:20;60.43;;;30.13;;
19251;SDS011;9760;50.944;5.304;2022-07-24T05:31:45;54.87;;;28.53;;
19251;SDS011;9760;50.944;5.304;2022-07-24T05:34:11;53.10;;;28.57;;
19251;SDS011;9760;50.944;5.304;2022-07-24T05:36:37;46.90;;;29.67;;
19251;SDS011;9760;50.944;5.304;2022-07-24T05:39:03;47.60;;;29.07;;
19251;SDS011;9760;50.944;5.304;2022-07-24T05:41:29;52.80;;;29.00;;
19251;SDS011;9760;50.944;5.304;2022-07-24T05:43:55;51.03;;;27.83;;
19251;SDS011;9760;50.944;5.304;2022-07-24T05:46:21;45.30;;;27.30;;
19251;SDS011;9760;50.944;5.304;2022-07-24T05:48:46;52.50;;;28.77;;
19251;SDS011;9760;50.944;5.304;2022-07-24T05:51:12;43.10;;;26.20;;
19251;SDS011;9760;50.944;5.304;2022-07-24T05:53:38;54.37;;;28.27;;
19251;SDS011;9760;50.944;5.304;2022-07-24T05:56:03;56.03;;;31.57;;
19251;SDS011;9760;50.944;5.304;2022-07-24T05:58:30;48.00;;;29.47;;
19251;SDS011;9760;50.944;5.304;2022-07-24T06:00:55;51.57;;;29.17;;
19251;SDS011;9760;50.944;5.304;2022-07-24T06:03:21;51.17;;;29.70;;
19251;SDS011;9760;50.944;5.304;2022-07-24T06:05:46;48.47;;;28.63;;
19251;SDS011;9760;50.944;5.304;2022-07-24T06:08:12;53.50;;;28.57;;
19251;SDS011;9760;50.944;5.304;2022-07-24T06:10:38;53.83;;;29.57;;
19251;SDS011;9760;50.944;5.304;2022-07-24T06:13:03;57.93;;;29.67;;
19251;SDS011;9760;50.944;5.304;2022-07-24T06:15:29;56.23;;;29.27;;
19251;SDS011;9760;50.944;5.304;2022-07-24T06:17:55;48.83;;;28.03;;
19251;SDS011;9760;50.944;5.304;2022-07-24T06:20:20;46.83;;;27.50;;
19251;SDS011;9760;50.944;5.304;2022-07-24T06:22:46;47.93;;;27.57;;
19251;SDS011;9760;50.944;5.304;2022-07-24T06:25:12;50.33;;;28.00;;
19251;SDS011;9760;50.944;5.304;2022-07-24T06:27:41;45.97;;;26.27;;
19251;SDS011;9760;50.944;5.304;2022-07-24T06:30:12;48.77;;;25.43;;
19251;SDS011;9760;50.944;5.304;2022-07-24T06:32:42;43.67;;;26.00;;
19251;SDS011;9760;50.944;5.304;2022-07-24T06:35:09;41.47;;;24.30;;
19251;SDS011;9760;50.944;5.304;2022-07-24T06:37:35;50.33;;;25.77;;
19251;SDS011;9760;50.944;5.304;2022-07-24T06:40:01;44.57;;;23.67;;
19251;SDS011;9760;50.944;5.304;2022-07-24T06:42:26;41.17;;;24.70;;
19251;SDS011;9760;50.944;5.304;2022-07-24T06:44:52;46.33;;;24.77;;
19251;SDS011;9760;50.944;5.304;2022-07-24T06:47:18;38.33;;;20.77;;
19251;SDS011;9760;50.944;5.304;2022-07-24T06:49:44;40.07;;;20.00;;
19251;SDS011;9760;50.944;5.304;2022-07-24T06:52:09;33.23;;;17.73;;
19251;SDS011;9760;50.944;5.304;2022-07-24T06:54:35;32.13;;;17.40;;
19251;SDS011;9760;50.944;5.304;2022-07-24T06:57:01;29.07;;;15.57;;
19251;SDS011;9760;50.944;5.304;2022-07-24T06:59:26;29.97;;;13.73;;
19251;SDS011;9760;50.944;5.304;2022-07-24T07:01:52;30.17;;;16.83;;
19251;SDS011;9760;50.944;5.304;2022-07-24T07:04:18;30.77;;;16.10;;
19251;SDS011;9760;50.944;5.304;2022-07-24T07:06:44;25.23;;;14.80;;
19251;SDS011;9760;50.944;5.304;2022-07-24T07:09:09;26.23;;;13.77;;
19251;SDS011;9760;50.944;5.304;2022-07-24T07:11:36;33.20;;;15.17;;
19251;SDS011;9760;50.944;5.304;2022-07-24T07:14:01;26.50;;;14.93;;
19251;SDS011;9760;50.944;5.304;2022-07-24T07:16:27;30.67;;;15.03;;
19251;SDS011;9760;50.944;5.304;2022-07-24T07:18:53;29.40;;;16.23;;
19251;SDS011;9760;50.944;5.304;2022-07-24T07:21:18;25.97;;;15.13;;
19251;SDS011;9760;50.944;5.304;2022-07-24T07:23:44;34.87;;;17.40;;
19251;SDS011;9760;50.944;5.304;2022-07-24T07:26:10;30.73;;;16.63;;
19251;SDS011;9760;50.944;5.304;2022-07-24T07:28:35;34.87;;;17.43;;
19251;SDS011;9760;50.944;5.304;2022-07-24T07:31:01;35.00;;;19.30;;
19251;SDS011;9760;50.944;5.304;2022-07-24T07:33:27;34.37;;;18.50;;
19251;SDS011;9760;50.944;5.304;2022-07-24T07:35:53;35.10;;;20.23;;
19251;SDS011;9760;50.944;5.304;2022-07-24T07:38:18;39.93;;;22.03;;
19251;SDS011;9760;50.944;5.304;2022-07-24T07:40:44;34.70;;;19.13;;
19251;SDS011;9760;50.944;5.304;2022-07-24T07:43:10;40.40;;;20.20;;
19251;SDS011;9760;50.944;5.304;2022-07-24T07:45:36;39.10;;;20.07;;
19251;SDS011;9760;50.944;5.304;2022-07-24T07:48:01;36.70;;;19.17;;
19251;SDS011;9760;50.944;5.304;2022-07-24T07:50:28;38.00;;;19.83;;
19251;SDS011;9760;50.944;5.304;2022-07-24T07:52:53;37.07;;;19.57;;
19251;SDS011;9760;50.944;5.304;2022-07-24T07:55:19;38.87;;;19.17;;
19251;SDS011;9760;50.944;5.304;2022-07-24T07:57:45;42.00;;;18.67;;
19251;SDS011;9760;50.944;5.304;2022-07-24T08:00:11;26.17;;;16.23;;
19251;SDS011;9760;50.944;5.304;2022-07-24T08:02:37;30.73;;;16.60;;
19251;SDS011;9760;50.944;5.304;2022-07-24T08:05:03;30.33;;;16.87;;
19251;SDS011;9760;50.944;5.304;2022-07-24T08:07:29;29.37;;;15.23;;
19251;SDS011;9760;50.944;5.304;2022-07-24T08:09:55;30.20;;;15.83;;
19251;SDS011;9760;50.944;5.304;2022-07-24T08:12:21;28.40;;;15.27;;
19251;SDS011;9760;50.944;5.304;2022-07-24T08:14:46;25.10;;;14.37;;
19251;SDS011;9760;50.944;5.304;2022-07-24T08:17:12;27.60;;;15.73;;
19251;SDS011;9760;50.944;5.304;2022-07-24T08:19:38;23.73;;;12.57;;
19251;SDS011;9760;50.944;5.304;2022-07-24T08:22:03;34.50;;;14.53;;
19251;SDS011;9760;50.944;5.304;2022-07-24T08:24:30;18.17;;;10.57;;
19251;SDS011;9760;50.944;5.304;2022-07-24T08:26:57;22.30;;;9.73;;
19251;SDS011;9760;50.944;5.304;2022-07-24T08:29:24;16.37;;;9.37;;
19251;SDS011;9760;50.944;5.304;2022-07-24T08:31:50;17.63;;;9.43;;
19251;SDS011;9760;50.944;5.304;2022-07-24T08:34:16;19.50;;;9.43;;
19251;SDS011;9760;50.944;5.304;2022-07-24T08:36:42;12.27;;;8.30;;
19251;SDS011;9760;50.944;5.304;2022-07-24T08:39:10;15.80;;;9.13;;
19251;SDS011;9760;50.944;5.304;2022-07-24T08:41:37;16.20;;;9.03;;
19251;SDS011;9760;50.944;5.304;2022-07-24T08:44:03;13.17;;;7.70;;
19251;SDS011;9760;50.944;5.304;2022-07-24T08:46:30;12.13;;;6.03;;
19251;SDS011;9760;50.944;5.304;2022-07-24T08:48:57;11.67;;;5.80;;
19251;SDS011;9760;50.944;5.304;2022-07-24T08:51:24;15.90;;;7.23;;
19251;SDS011;9760;50.944;5.304;2022-07-24T08:53:57;10.73;;;5.77;;
19251;SDS011;9760;50.944;5.304;2022-07-24T08:56:23;11.43;;;4.97;;
19251;SDS011;9760;50.944;5.304;2022-07-24T08:58:49;11.00;;;4.90;;
19251;SDS011;9760;50.944;5.304;2022-07-24T09:01:15;9.80;;;5.13;;
19251;SDS011;9760;50.944;5.304;2022-07-24T09:03:44;10.57;;;5.67;;
19251;SDS011;9760;50.944;5.304;2022-07-24T09:06:11;12.80;;;5.57;;
19251;SDS011;9760;50.944;5.304;2022-07-24T09:08:41;9.27;;;4.83;;
19251;SDS011;9760;50.944;5.304;2022-07-24T09:11:20;10.73;;;5.47;;
19251;SDS011;9760;50.944;5.304;2022-07-24T09:13:46;16.60;;;6.97;;
19251;SDS011;9760;50.944;5.304;2022-07-24T09:16:35;13.07;;;5.87;;
19251;SDS011;9760;50.944;5.304;2022-07-24T09:19:05;13.00;;;6.00;;
19251;SDS011;9760;50.944;5.304;2022-07-24T09:21:36;7.43;;;5.43;;
19251;SDS011;9760;50.944;5.304;2022-07-24T09:26:52;10.07;;;5.40;;
19251;SDS011;9760;50.944;5.304;2022-07-24T09:29:21;8.20;;;4.73;;
19251;SDS011;9760;50.944;5.304;2022-07-24T09:34:27;7.33;;;4.20;;
19251;SDS011;9760;50.944;5.304;2022-07-24T09:37:04;9.50;;;5.60;;
19251;SDS011;9760;50.944;5.304;2022-07-24T09:39:34;7.60;;;3.67;;
19251;SDS011;9760;50.944;5.304;2022-07-24T09:42:05;7.70;;;3.80;;
19251;SDS011;9760;50.944;5.304;2022-07-24T09:44:32;6.37;;;3.67;;
19251;SDS011;9760;50.944;5.304;2022-07-24T09:49:32;5.93;;;3.57;;
19251;SDS011;9760;50.944;5.304;2022-07-24T09:54:30;4.73;;;2.73;;
19251;SDS011;9760;50.944;5.304;2022-07-24T09:59:55;7.17;;;2.60;;
19251;SDS011;9760;50.944;5.304;2022-07-24T10:02:24;4.27;;;2.10;;
19251;SDS011;9760;50.944;5.304;2022-07-24T10:04:51;4.63;;;2.13;;
19251;SDS011;9760;50.944;5.304;2022-07-24T10:07:18;4.87;;;2.40;;
19251;SDS011;9760;50.944;5.304;2022-07-24T10:09:47;4.23;;;1.87;;
19251;SDS011;9760;50.944;5.304;2022-07-24T10:12:15;4.23;;;2.00;;
19251;SDS011;9760;50.944;5.304;2022-07-24T10:14:46;2.93;;;1.93;;
19251;SDS011;9760;50.944;5.304;2022-07-24T10:17:14;3.67;;;2.60;;
19251;SDS011;9760;50.944;5.304;2022-07-24T10:19:41;3.70;;;1.90;;
19251;SDS011;9760;50.944;5.304;2022-07-24T10:22:14;4.13;;;2.33;;
19251;SDS011;9760;50.944;5.304;2022-07-24T10:27:28;3.90;;;2.30;;
19251;SDS011;9760;50.944;5.304;2022-07-24T10:29:55;3.97;;;1.83;;
19251;SDS011;9760;50.944;5.304;2022-07-24T10:32:23;1.80;;;1.63;;
19251;SDS011;9760;50.944;5.304;2022-07-24T10:37:31;3.73;;;1.93;;
19251;SDS011;9760;50.944;5.304;2022-07-24T10:40:08;3.07;;;1.80;;
19251;SDS011;9760;50.944;5.304;2022-07-24T10:45:30;1.90;;;1.63;;
19251;SDS011;9760;50.944;5.304;2022-07-24T10:53:23;3.00;;;1.80;;
19251;SDS011;9760;50.944;5.304;2022-07-24T10:55:49;4.23;;;2.20;;
19251;SDS011;9760;50.944;5.304;2022-07-24T10:58:15;3.00;;;1.67;;
19251;SDS011;9760;50.944;5.304;2022-07-24T11:00:43;2.00;;;1.77;;
19251;SDS011;9760;50.944;5.304;2022-07-24T11:09:02;2.83;;;1.57;;
19251;SDS011;9760;50.944;5.304;2022-07-24T11:11:28;5.40;;;1.70;;
19251;SDS011;9760;50.944;5.304;2022-07-24T11:13:57;2.13;;;1.77;;
19251;SDS011;9760;50.944;5.304;2022-07-24T11:16:28;2.97;;;1.77;;
19251;SDS011;9760;50.944;5.304;2022-07-24T11:26:54;2.23;;;1.70;;
19251;SDS011;9760;50.944;5.304;2022-07-24T11:29:28;2.53;;;1.60;;
19251;SDS011;9760;50.944;5.304;2022-07-24T11:31:59;2.73;;;1.70;;
19251;SDS011;9760;50.944;5.304;2022-07-24T11:34:27;4.13;;;1.53;;
19251;SDS011;9760;50.944;5.304;2022-07-24T11:36:54;3.15;;;1.90;;
19251;SDS011;9760;50.944;5.304;2022-07-24T11:39:26;4.50;;;1.40;;
19251;SDS011;9760;50.944;5.304;2022-07-24T11:41:54;1.40;;;1.30;;
19251;SDS011;9760;50.944;5.304;2022-07-24T11:44:23;1.60;;;1.50;;
19251;SDS011;9760;50.944;5.304;2022-07-24T11:46:53;4.63;;;1.73;;
19251;SDS011;9760;50.944;5.304;2022-07-24T11:49:21;4.13;;;1.73;;
19251;SDS011;9760;50.944;5.304;2022-07-24T11:51:48;2.80;;;1.50;;
19251;SDS011;9760;50.944;5.304;2022-07-24T11:54:20;4.23;;;1.43;;
19251;SDS011;9760;50.944;5.304;2022-07-24T11:56:54;3.90;;;1.37;;
19251;SDS011;9760;50.944;5.304;2022-07-24T11:59:24;2.57;;;1.50;;
19251;SDS011;9760;50.944;5.304;2022-07-24T12:01:50;2.63;;;1.40;;
19251;SDS011;9760;50.944;5.304;2022-07-24T12:04:19;3.77;;;1.50;;
19251;SDS011;9760;50.944;5.304;2022-07-24T12:06:46;4.20;;;1.27;;
19251;SDS011;9760;50.944;5.304;2022-07-24T12:09:12;2.23;;;1.37;;
19251;SDS011;9760;50.944;5.304;2022-07-24T12:11:38;5.00;;;1.50;;
19251;SDS011;9760;50.944;5.304;2022-07-24T12:14:04;2.00;;;1.43;;
19251;SDS011;9760;50.944;5.304;2022-07-24T12:16:37;2.50;;;1.47;;
19251;SDS011;9760;50.944;5.304;2022-07-24T12:19:15;2.03;;;1.30;;
19251;SDS011;9760;50.944;5.304;2022-07-24T12:21:43;1.40;;;1.30;;
19251;SDS011;9760;50.944;5.304;2022-07-24T12:24:09;4.47;;;1.53;;
19251;SDS011;9760;50.944;5.304;2022-07-24T12:26:52;4.63;;;1.50;;
19251;SDS011;9760;50.944;5.304;2022-07-24T12:29:19;4.28;;;1.50;;
19251;SDS011;9760;50.944;5.304;2022-07-24T12:31:46;4.15;;;1.60;;
19251;SDS011;9760;50.944;5.304;2022-07-24T12:34:12;3.55;;;1.42;;
19251;SDS011;9760;50.944;5.304;2022-07-24T12:36:38;3.38;;;1.42;;
19251;SDS011;9760;50.944;5.304;2022-07-24T12:39:05;3.83;;;1.63;;
19251;SDS011;9760;50.944;5.304;2022-07-24T12:41:34;2.80;;;1.30;;
19251;SDS011;9760;50.944;5.304;2022-07-24T12:44:08;4.73;;;1.53;;
19251;SDS011;9760;50.944;5.304;2022-07-24T12:46:41;2.10;;;1.50;;
19251;SDS011;9760;50.944;5.304;2022-07-24T12:49:09;2.50;;;1.65;;
19251;SDS011;9760;50.944;5.304;2022-07-24T12:54:17;2.63;;;1.40;;
19251;SDS011;9760;50.944;5.304;2022-07-24T12:56:59;2.17;;;1.63;;
19251;SDS011;9760;50.944;5.304;2022-07-24T12:59:35;6.83;;;2.20;;
19251;SDS011;9760;50.944;5.304;2022-07-24T13:04:43;3.77;;;1.60;;
19251;SDS011;9760;50.944;5.304;2022-07-24T13:07:14;2.57;;;1.80;;
19251;SDS011;9760;50.944;5.304;2022-07-24T13:09:41;3.07;;;2.03;;
19251;SDS011;9760;50.944;5.304;2022-07-24T13:12:07;5.50;;;2.07;;
19251;SDS011;9760;50.944;5.304;2022-07-24T13:14:34;13.33;;;1.80;;
19251;SDS011;9760;50.944;5.304;2022-07-24T13:17:01;4.23;;;1.50;;
19251;SDS011;9760;50.944;5.304;2022-07-24T13:19:35;3.17;;;1.80;;
19251;SDS011;9760;50.944;5.304;2022-07-24T13:22:02;3.10;;;1.77;;
19251;SDS011;9760;50.944;5.304;2022-07-24T13:24:28;6.33;;;2.00;;
19251;SDS011;9760;50.944;5.304;2022-07-24T13:26:54;4.27;;;1.53;;
19251;SDS011;9760;50.944;5.304;2022-07-24T13:29:20;3.77;;;1.70;;
19251;SDS011;9760;50.944;5.304;2022-07-24T13:31:46;6.97;;;2.00;;
19251;SDS011;9760;50.944;5.304;2022-07-24T13:34:12;4.83;;;1.97;;
19251;SDS011;9760;50.944;5.304;2022-07-24T13:36:38;2.57;;;2.17;;
19251;SDS011;9760;50.944;5.304;2022-07-24T13:39:04;4.70;;;1.90;;
19251;SDS011;9760;50.944;5.304;2022-07-24T13:41:30;8.23;;;1.73;;
19251;SDS011;9760;50.944;5.304;2022-07-24T13:43:56;6.83;;;1.80;;
19251;SDS011;9760;50.944;5.304;2022-07-24T13:46:22;4.57;;;1.90;;
19251;SDS011;9760;50.944;5.304;2022-07-24T13:48:48;3.43;;;1.90;;
19251;SDS011;9760;50.944;5.304;2022-07-24T13:51:15;5.33;;;2.57;;
19251;SDS011;9760;50.944;5.304;2022-07-24T13:53:40;6.87;;;2.50;;
19251;SDS011;9760;50.944;5.304;2022-07-24T13:56:06;6.17;;;2.30;;
19251;SDS011;9760;50.944;5.304;2022-07-24T13:58:33;9.77;;;2.47;;
19251;SDS011;9760;50.944;5.304;2022-07-24T14:01:02;4.40;;;2.40;;
19251;SDS011;9760;50.944;5.304;2022-07-24T14:03:32;4.67;;;2.60;;
19251;SDS011;9760;50.944;5.304;2022-07-24T14:05:58;3.77;;;2.33;;
19251;SDS011;9760;50.944;5.304;2022-07-24T14:08:24;4.97;;;2.70;;
19251;SDS011;9760;50.944;5.304;2022-07-24T14:10:50;7.23;;;2.50;;
19251;SDS011;9760;50.944;5.304;2022-07-24T14:13:16;6.67;;;2.60;;
19251;SDS011;9760;50.944;5.304;2022-07-24T14:15:42;5.23;;;2.70;;
19251;SDS011;9760;50.944;5.304;2022-07-24T14:18:07;10.00;;;2.67;;
19251;SDS011;9760;50.944;5.304;2022-07-24T14:20:33;3.43;;;2.70;;
19251;SDS011;9760;50.944;5.304;2022-07-24T14:22:59;5.40;;;3.53;;
19251;SDS011;9760;50.944;5.304;2022-07-24T14:25:24;6.73;;;3.57;;
19251;SDS011;9760;50.944;5.304;2022-07-24T14:27:50;6.90;;;3.13;;
19251;SDS011;9760;50.944;5.304;2022-07-24T14:30:16;9.93;;;2.80;;
19251;SDS011;9760;50.944;5.304;2022-07-24T14:32:41;3.73;;;2.80;;
19251;SDS011;9760;50.944;5.304;2022-07-24T14:35:08;6.50;;;2.77;;
19251;SDS011;9760;50.944;5.304;2022-07-24T14:37:35;6.47;;;2.70;;
19251;SDS011;9760;50.944;5.304;2022-07-24T14:40:02;6.33;;;2.80;;
19251;SDS011;9760;50.944;5.304;2022-07-24T14:42:29;6.30;;;2.90;;
19251;SDS011;9760;50.944;5.304;2022-07-24T14:44:55;6.67;;;3.40;;
19251;SDS011;9760;50.944;5.304;2022-07-24T14:47:21;3.80;;;2.90;;
19251;SDS011;9760;50.944;5.304;2022-07-24T14:49:46;7.20;;;3.17;;
19251;SDS011;9760;50.944;5.304;2022-07-24T14:52:12;7.00;;;2.97;;
19251;SDS011;9760;50.944;5.304;2022-07-24T14:54:38;4.57;;;2.93;;
19251;SDS011;9760;50.944;5.304;2022-07-24T14:57:04;5.23;;;3.10;;
19251;SDS011;9760;50.944;5.304;2022-07-24T14:59:30;5.57;;;2.70;;
19251;SDS011;9760;50.944;5.304;2022-07-24T15:01:56;2.87;;;2.33;;
19251;SDS011;9760;50.944;5.304;2022-07-24T15:04:21;5.13;;;4.03;;
19251;SDS011;9760;50.944;5.304;2022-07-24T15:06:47;6.90;;;3.47;;
19251;SDS011;9760;50.944;5.304;2022-07-24T15:09:12;5.70;;;2.80;;
19251;SDS011;9760;50.944;5.304;2022-07-24T15:11:38;4.70;;;2.80;;
19251;SDS011;9760;50.944;5.304;2022-07-24T15:14:04;6.07;;;2.97;;
19251;SDS011;9760;50.944;5.304;2022-07-24T15:16:30;4.07;;;2.37;;
19251;SDS011;9760;50.944;5.304;2022-07-24T15:18:55;4.50;;;3.50;;
19251;SDS011;9760;50.944;5.304;2022-07-24T15:21:21;4.77;;;2.73;;
19251;SDS011;9760;50.944;5.304;2022-07-24T15:23:47;8.43;;;4.30;;
19251;SDS011;9760;50.944;5.304;2022-07-24T15:26:12;5.03;;;3.83;;
19251;SDS011;9760;50.944;5.304;2022-07-24T15:28:38;5.30;;;3.43;;
19251;SDS011;9760;50.944;5.304;2022-07-24T15:31:04;7.43;;;3.17;;